createdAt,value
2019-06-20T00:00:41.096Z,17.30
2019-06-20T00:01:41.085Z,17.33
2019-06-20T00:02:41.068Z,17.37
2019-06-20T00:03:41.152Z,17.31
2019-06-20T00:04:41.051Z,17.41
2019-06-20T00:05:41.038Z,17.33
2019-06-20T00:06:41.033Z,17.25
2019-06-20T00:07:41.018Z,17.33
2019-06-20T00:08:41.789Z,17.30
2019-06-20T00:09:40.993Z,17.31
2019-06-20T00:10:40.982Z,17.26
2019-06-20T00:11:41.005Z,17.22
2019-06-20T00:12:40.965Z,17.16
2019-06-20T00:13:40.983Z,17.22
2019-06-20T00:14:40.973Z,17.21
2019-06-20T00:15:40.934Z,17.26
2019-06-20T00:16:40.927Z,17.14
2019-06-20T00:17:40.910Z,17.12
2019-06-20T00:18:40.923Z,17.14
2019-06-20T00:19:40.892Z,17.08
2019-06-20T00:20:40.872Z,17.08
2019-06-20T00:21:40.867Z,17.12
2019-06-20T00:22:40.868Z,17.15
2019-06-20T00:23:40.861Z,17.11
2019-06-20T00:24:40.837Z,17.16
2019-06-20T00:25:40.824Z,17.14
2019-06-20T00:26:40.812Z,17.15
2019-06-20T00:27:40.804Z,17.15
2019-06-20T00:28:40.806Z,17.22
2019-06-20T00:29:40.779Z,17.21
2019-06-20T00:30:40.781Z,17.11
2019-06-20T00:31:40.766Z,17.11
2019-06-20T00:32:40.759Z,17.07
2019-06-20T00:33:40.767Z,17.14
2019-06-20T00:34:40.725Z,17.15
2019-06-20T00:35:40.719Z,17.11
2019-06-20T00:36:40.708Z,17.19
2019-06-20T00:37:40.694Z,17.08
2019-06-20T00:38:40.699Z,17.14
2019-06-20T00:39:40.683Z,17.16
2019-06-20T00:40:40.657Z,17.12
2019-06-20T00:41:40.648Z,17.07
2019-06-20T00:42:40.640Z,17.14
2019-06-20T00:43:40.625Z,17.11
2019-06-20T00:44:40.650Z,17.22
2019-06-20T00:45:40.606Z,17.31
2019-06-20T00:46:40.599Z,17.30
2019-06-20T00:47:40.588Z,17.33
2019-06-20T00:48:40.569Z,17.49
2019-06-20T00:49:40.601Z,17.44
2019-06-20T00:50:40.563Z,17.44
2019-06-20T00:51:40.546Z,17.56
2019-06-20T00:52:40.539Z,17.58
2019-06-20T00:53:40.523Z,17.64
2019-06-20T00:54:40.536Z,17.74
2019-06-20T00:55:40.493Z,17.64
2019-06-20T00:56:40.490Z,17.75
2019-06-20T00:57:40.477Z,17.84
2019-06-20T00:58:40.486Z,17.86
2019-06-20T00:59:40.490Z,17.92
2019-06-20T01:00:40.440Z,17.81
2019-06-20T01:01:40.431Z,17.72
2019-06-20T01:02:40.439Z,17.87
2019-06-20T01:03:40.407Z,17.79
2019-06-20T01:04:40.503Z,17.92
2019-06-20T01:05:40.411Z,17.93
2019-06-20T01:06:40.375Z,17.93
2019-06-20T01:07:40.363Z,17.97
2019-06-20T01:08:40.362Z,17.95
2019-06-20T01:09:40.369Z,18.00
2019-06-20T01:10:40.363Z,18.03
2019-06-20T01:11:40.327Z,17.99
2019-06-20T01:12:40.320Z,17.93
2019-06-20T01:13:40.303Z,18.03
2019-06-20T01:14:40.308Z,17.99
2019-06-20T01:15:40.370Z,17.99
2019-06-20T01:16:40.274Z,18.05
2019-06-20T01:17:40.261Z,18.10
2019-06-20T01:18:40.251Z,18.12
2019-06-20T01:19:40.262Z,18.08
2019-06-20T01:20:40.225Z,18.02
2019-06-20T01:21:40.216Z,18.08
2019-06-20T01:22:40.214Z,18.02
2019-06-20T01:23:40.199Z,18.02
2019-06-20T01:24:40.233Z,18.11
2019-06-20T01:25:40.183Z,18.11
2019-06-20T01:26:40.170Z,18.12
2019-06-20T01:27:40.155Z,18.12
2019-06-20T01:28:40.162Z,18.14
2019-06-20T01:29:40.159Z,18.12
2019-06-20T01:30:40.122Z,18.11
2019-06-20T01:31:40.114Z,18.14
2019-06-20T01:32:40.116Z,18.08
2019-06-20T01:33:40.090Z,18.11
2019-06-20T01:34:40.077Z,18.07
2019-06-20T01:35:40.065Z,18.11
2019-06-20T01:36:40.061Z,18.03
2019-06-20T01:37:40.071Z,18.05
2019-06-20T01:38:40.041Z,17.99
2019-06-20T01:39:40.020Z,17.99
2019-06-20T01:40:40.018Z,18.03
2019-06-20T01:41:40.006Z,17.99
2019-06-20T01:42:40.017Z,17.97
2019-06-20T01:43:49.964Z,18.00
2019-06-20T01:44:40.966Z,18.00
2019-06-20T01:45:39.962Z,18.05
2019-06-20T01:46:39.949Z,18.08
2019-06-20T01:47:39.936Z,18.12
2019-06-20T01:48:39.968Z,18.11
2019-06-20T01:49:39.921Z,18.12
2019-06-20T01:50:39.935Z,18.12
2019-06-20T01:51:39.901Z,18.20
2019-06-20T01:52:39.883Z,18.18
2019-06-20T01:53:39.908Z,18.12
2019-06-20T01:54:39.869Z,18.11
2019-06-20T01:55:39.887Z,18.12
2019-06-20T01:56:39.840Z,18.26
2019-06-20T01:57:39.857Z,18.12
2019-06-20T01:58:39.895Z,18.17
2019-06-20T01:59:39.808Z,18.12
2019-06-20T02:00:39.805Z,18.12
2019-06-20T02:01:39.799Z,18.17
2019-06-20T02:02:39.789Z,18.10
2019-06-20T02:03:39.810Z,18.10
2019-06-20T02:04:39.752Z,18.10
2019-06-20T02:05:39.744Z,18.00
2019-06-20T02:06:39.753Z,18.02
2019-06-20T02:07:39.721Z,17.95
2019-06-20T02:08:39.736Z,18.03
2019-06-20T02:09:39.704Z,18.07
2019-06-20T02:10:39.704Z,17.93
2019-06-20T02:11:39.697Z,17.97
2019-06-20T02:12:39.699Z,17.97
2019-06-20T02:13:39.790Z,17.99
2019-06-20T02:14:39.652Z,17.79
2019-06-20T02:15:39.644Z,17.92
2019-06-20T02:16:39.631Z,17.86
2019-06-20T02:17:39.643Z,17.75
2019-06-20T02:18:39.634Z,17.77
2019-06-20T02:19:39.593Z,17.77
2019-06-20T02:20:39.606Z,17.68
2019-06-20T02:21:39.578Z,17.71
2019-06-20T02:22:39.566Z,17.63
2019-06-20T02:23:39.577Z,17.54
2019-06-20T02:24:39.546Z,17.48
2019-06-20T02:25:39.532Z,17.51
2019-06-20T02:26:39.524Z,17.43
2019-06-20T02:27:39.518Z,17.44
2019-06-20T02:28:39.516Z,17.44
2019-06-20T02:29:39.494Z,17.44
2019-06-20T02:30:39.482Z,17.33
2019-06-20T02:31:39.468Z,17.36
2019-06-20T02:32:39.464Z,17.30
2019-06-20T02:33:39.469Z,17.28
2019-06-20T02:34:39.453Z,17.31
2019-06-20T02:35:39.433Z,17.28
2019-06-20T02:36:39.416Z,17.28
2019-06-20T02:37:39.407Z,17.23
2019-06-20T02:38:39.419Z,17.28
2019-06-20T02:39:39.383Z,17.21
2019-06-20T02:40:39.377Z,17.18
2019-06-20T02:41:39.365Z,17.15
2019-06-20T02:42:39.349Z,17.14
2019-06-20T02:43:39.359Z,17.22
2019-06-20T02:44:39.344Z,17.06
2019-06-20T02:45:39.335Z,17.08
2019-06-20T02:46:39.309Z,17.21
2019-06-20T02:47:39.320Z,17.12
2019-06-20T02:48:39.307Z,17.14
2019-06-20T02:49:39.274Z,17.16
2019-06-20T02:50:39.266Z,17.14
2019-06-20T02:51:39.254Z,17.12
2019-06-20T02:52:39.245Z,17.01
2019-06-20T02:53:39.257Z,17.06
2019-06-20T02:54:39.222Z,17.06
2019-06-20T02:55:39.215Z,16.94
2019-06-20T02:56:39.193Z,16.96
2019-06-20T02:57:39.207Z,16.96
2019-06-20T02:58:39.196Z,16.91
2019-06-20T02:59:39.171Z,16.82
2019-06-20T03:00:39.152Z,16.83
2019-06-20T03:01:39.144Z,16.82
2019-06-20T03:02:39.129Z,16.76
2019-06-20T03:03:39.135Z,16.73
2019-06-20T03:04:39.115Z,16.66
2019-06-20T03:05:39.101Z,16.63
2019-06-20T03:06:39.090Z,16.56
2019-06-20T03:07:39.081Z,16.53
2019-06-20T03:08:39.083Z,16.49
2019-06-20T03:09:39.055Z,16.48
2019-06-20T03:10:39.061Z,16.46
2019-06-20T03:11:39.029Z,16.42
2019-06-20T03:12:39.044Z,16.31
2019-06-20T03:13:39.014Z,16.31
2019-06-20T03:14:45.415Z,16.31
2019-06-20T03:15:39.984Z,16.21
2019-06-20T03:16:38.980Z,16.28
2019-06-20T03:17:38.984Z,16.09
2019-06-20T03:18:38.958Z,16.09
2019-06-20T03:19:38.947Z,16.17
2019-06-20T03:20:38.949Z,16.14
2019-06-20T03:21:38.932Z,16.14
2019-06-20T03:22:38.952Z,16.14
2019-06-20T03:23:38.905Z,16.09
2019-06-20T03:24:38.890Z,16.01
2019-06-20T03:25:38.875Z,16.08
2019-06-20T03:26:38.865Z,16.07
2019-06-20T03:27:38.874Z,16.12
2019-06-20T03:28:38.847Z,16.04
2019-06-20T03:29:38.834Z,16.04
2019-06-20T03:30:38.824Z,16.07
2019-06-20T03:31:38.807Z,16.04
2019-06-20T03:32:38.820Z,16.02
2019-06-20T03:33:38.797Z,16.07
2019-06-20T03:34:38.781Z,16.11
2019-06-20T03:35:38.770Z,16.07
2019-06-20T03:36:38.750Z,16.11
2019-06-20T03:37:38.767Z,16.05
2019-06-20T03:38:38.735Z,16.08
2019-06-20T03:39:38.722Z,16.05
2019-06-20T03:40:38.713Z,16.23
2019-06-20T03:41:38.705Z,16.15
2019-06-20T03:42:38.715Z,16.17
2019-06-20T03:43:38.704Z,16.14
2019-06-20T03:44:38.670Z,16.09
2019-06-20T03:45:38.653Z,16.14
2019-06-20T03:46:38.647Z,16.23
2019-06-20T03:47:38.661Z,16.31
2019-06-20T03:48:38.618Z,16.27
2019-06-20T03:49:38.609Z,16.30
2019-06-20T03:50:38.599Z,16.35
2019-06-20T03:51:38.584Z,16.43
2019-06-20T03:52:38.600Z,16.42
2019-06-20T03:53:38.570Z,16.41
2019-06-20T03:54:38.560Z,16.46
2019-06-20T03:55:38.554Z,16.49
2019-06-20T03:56:38.538Z,16.49
2019-06-20T03:57:38.541Z,16.43
2019-06-20T03:58:38.531Z,16.45
2019-06-20T03:59:38.499Z,16.46
2019-06-20T04:00:38.500Z,16.49
2019-06-20T04:01:38.479Z,16.50
2019-06-20T04:02:38.485Z,16.56
2019-06-20T04:03:38.453Z,16.58
2019-06-20T04:04:38.458Z,16.58
2019-06-20T04:05:38.450Z,16.56
2019-06-20T04:06:38.488Z,16.58
2019-06-20T04:07:38.577Z,16.61
2019-06-20T04:08:38.398Z,16.60
2019-06-20T04:09:38.420Z,16.58
2019-06-20T04:10:38.382Z,16.58
2019-06-20T04:11:38.363Z,16.60
2019-06-20T04:12:38.362Z,16.58
2019-06-20T04:13:38.369Z,16.57
2019-06-20T04:14:38.337Z,16.57
2019-06-20T04:15:38.330Z,16.61
2019-06-20T04:16:38.312Z,16.58
2019-06-20T04:17:38.300Z,16.66
2019-06-20T04:18:38.311Z,16.66
2019-06-20T04:19:38.294Z,16.75
2019-06-20T04:20:38.267Z,16.85
2019-06-20T04:21:38.259Z,16.76
2019-06-20T04:22:38.266Z,16.86
2019-06-20T04:23:38.252Z,16.91
2019-06-20T04:24:38.271Z,17.01
2019-06-20T04:25:38.215Z,17.07
2019-06-20T04:26:38.203Z,17.11
2019-06-20T04:27:38.194Z,17.12
2019-06-20T04:28:38.198Z,17.26
2019-06-20T04:29:38.167Z,17.14
2019-06-20T04:30:38.157Z,17.26
2019-06-20T04:31:38.141Z,17.30
2019-06-20T04:32:38.151Z,17.30
2019-06-20T04:33:38.168Z,17.33
2019-06-20T04:34:38.112Z,17.36
2019-06-20T04:35:38.099Z,17.33
2019-06-20T04:36:38.095Z,17.37
2019-06-20T04:37:38.080Z,17.38
2019-06-20T04:38:38.092Z,17.48
2019-06-20T04:39:38.061Z,17.55
2019-06-20T04:40:38.045Z,17.46
2019-06-20T04:41:38.034Z,17.55
2019-06-20T04:42:38.039Z,17.56
2019-06-20T04:43:38.036Z,17.59
2019-06-20T04:44:38.005Z,17.62
2019-06-20T04:45:37.997Z,17.74
2019-06-20T04:46:37.982Z,17.75
2019-06-20T04:47:37.974Z,17.81
2019-06-20T04:48:37.975Z,17.89
2019-06-20T04:49:37.973Z,17.93
2019-06-20T04:50:37.939Z,17.90
2019-06-20T04:51:37.931Z,17.96
2019-06-20T04:52:37.916Z,17.96
2019-06-20T04:53:37.936Z,18.05
2019-06-20T04:54:37.894Z,18.12
2019-06-20T04:55:37.900Z,18.26
2019-06-20T04:56:37.876Z,18.33
2019-06-20T04:57:37.864Z,18.47
2019-06-20T04:58:38.071Z,18.54
2019-06-20T04:59:37.849Z,18.58
2019-06-20T05:00:37.829Z,18.69
2019-06-20T05:01:37.818Z,18.67
2019-06-20T05:02:37.810Z,18.69
2019-06-20T05:03:37.838Z,18.76
2019-06-20T05:04:37.789Z,18.72
2019-06-20T05:05:37.787Z,18.84
2019-06-20T05:06:37.759Z,18.91
2019-06-20T05:07:37.745Z,18.85
2019-06-20T05:08:37.873Z,19.02
2019-06-20T05:09:37.728Z,19.07
2019-06-20T05:10:37.718Z,19.13
2019-06-20T05:11:37.710Z,19.14
2019-06-20T05:12:37.695Z,19.28
2019-06-20T05:13:37.683Z,19.43
2019-06-20T05:14:37.690Z,19.63
2019-06-20T05:15:51.363Z,19.84
2019-06-20T05:16:38.654Z,20.31
2019-06-20T05:17:37.641Z,20.55
2019-06-20T05:18:37.650Z,20.69
2019-06-20T05:19:37.732Z,20.79
2019-06-20T05:20:37.605Z,20.85
2019-06-20T05:21:37.596Z,20.89
2019-06-20T05:22:37.590Z,20.89
2019-06-20T05:23:37.593Z,20.88
2019-06-20T05:24:37.584Z,20.89
2019-06-20T05:25:37.553Z,20.89
2019-06-20T05:26:37.541Z,20.88
2019-06-20T05:27:37.534Z,20.94
2019-06-20T05:28:37.540Z,20.89
2019-06-20T05:29:37.690Z,20.97
2019-06-20T05:30:37.503Z,20.91
2019-06-20T05:31:37.500Z,20.91
2019-06-20T05:32:37.472Z,20.87
2019-06-20T05:33:37.465Z,20.85
2019-06-20T05:34:37.624Z,20.64
2019-06-20T05:35:37.882Z,20.64
2019-06-20T05:36:37.448Z,20.58
2019-06-20T05:37:37.424Z,20.51
2019-06-20T05:38:37.411Z,20.55
2019-06-20T05:39:37.587Z,20.52
2019-06-20T05:40:37.429Z,20.50
2019-06-20T05:41:37.427Z,20.50
2019-06-20T05:42:37.368Z,20.39
2019-06-20T05:43:37.359Z,20.31
2019-06-20T05:44:37.360Z,20.17
2019-06-20T05:45:37.334Z,20.18
2019-06-20T05:46:37.334Z,20.13
2019-06-20T05:47:37.309Z,20.11
2019-06-20T05:48:37.316Z,20.13
2019-06-20T05:49:37.309Z,20.21
2019-06-20T05:50:37.335Z,20.18
2019-06-20T05:51:39.699Z,20.18
2019-06-20T05:52:37.259Z,20.17
2019-06-20T05:53:37.331Z,20.29
2019-06-20T05:54:37.257Z,20.36
2019-06-20T05:55:37.231Z,20.41
2019-06-20T05:56:37.209Z,20.41
2019-06-20T05:57:37.200Z,20.39
2019-06-20T05:58:37.191Z,20.41
2019-06-20T05:59:37.195Z,20.41
2019-06-20T06:00:37.172Z,20.43
2019-06-20T06:01:37.159Z,20.62
2019-06-20T06:02:37.386Z,20.74
2019-06-20T06:03:37.140Z,20.89
2019-06-20T06:04:37.157Z,21.07
2019-06-20T06:05:37.275Z,21.16
2019-06-20T06:06:37.165Z,21.24
2019-06-20T06:07:37.087Z,21.25
2019-06-20T06:08:37.103Z,21.46
2019-06-20T06:09:37.075Z,21.54
2019-06-20T06:10:37.077Z,21.69
2019-06-20T06:11:37.057Z,21.80
2019-06-20T06:12:37.068Z,21.83
2019-06-20T06:13:37.029Z,22.00
2019-06-20T06:14:37.043Z,22.06
2019-06-20T06:15:37.027Z,22.17
2019-06-20T06:16:36.993Z,22.35
2019-06-20T06:17:36.982Z,22.49
2019-06-20T06:18:36.976Z,22.57
2019-06-20T06:19:36.958Z,22.54
2019-06-20T06:20:36.973Z,22.61
2019-06-20T06:21:36.943Z,22.77
2019-06-20T06:22:36.934Z,22.98
2019-06-20T06:23:36.927Z,23.12
2019-06-20T06:24:36.905Z,23.04
2019-06-20T06:25:36.915Z,23.04
2019-06-20T06:26:36.894Z,23.09
2019-06-20T06:27:36.887Z,23.33
2019-06-20T06:28:36.857Z,23.54
2019-06-20T06:29:36.848Z,23.68
2019-06-20T06:30:36.857Z,23.48
2019-06-20T06:31:36.824Z,23.40
2019-06-20T06:32:40.516Z,23.38
2019-06-20T06:33:36.809Z,23.17
2019-06-20T06:34:36.796Z,22.98
2019-06-20T06:35:36.807Z,22.76
2019-06-20T06:36:36.767Z,22.83
2019-06-20T06:37:36.776Z,23.00
2019-06-20T06:38:36.751Z,23.00
2019-06-20T06:39:36.742Z,22.79
2019-06-20T06:40:36.766Z,22.82
2019-06-20T06:41:36.793Z,22.61
2019-06-20T06:42:36.706Z,22.58
2019-06-20T06:43:41.754Z,22.54
2019-06-20T06:44:37.687Z,22.43
2019-06-20T06:45:36.710Z,22.40
2019-06-20T06:46:44.922Z,22.65
2019-06-20T06:47:37.671Z,22.94
2019-06-20T06:48:36.644Z,23.01
2019-06-20T06:49:36.635Z,23.10
2019-06-20T06:50:36.655Z,23.20
2019-06-20T06:51:38.289Z,23.35
2019-06-20T06:52:36.602Z,22.92
2019-06-20T06:53:36.588Z,22.90
2019-06-20T06:54:36.577Z,23.13
2019-06-20T06:55:36.593Z,23.53
2019-06-20T06:56:36.559Z,23.91
2019-06-20T06:57:36.543Z,24.40
2019-06-20T06:58:36.546Z,24.64
2019-06-20T06:59:36.526Z,24.64
2019-06-20T07:00:37.868Z,24.60
2019-06-20T07:01:36.499Z,24.60
2019-06-20T07:02:36.500Z,24.78
2019-06-20T07:03:36.485Z,24.85
2019-06-20T07:04:36.472Z,24.96
2019-06-20T07:05:36.483Z,25.03
2019-06-20T07:06:36.451Z,25.02
2019-06-20T07:07:36.440Z,24.98
2019-06-20T07:08:36.422Z,24.69
2019-06-20T07:09:36.414Z,24.60
2019-06-20T07:10:36.405Z,24.28
2019-06-20T07:11:36.410Z,24.24
2019-06-20T07:12:36.394Z,24.55
2019-06-20T07:13:36.428Z,24.49
2019-06-20T07:14:36.364Z,24.43
2019-06-20T07:15:36.566Z,24.43
2019-06-20T07:16:36.378Z,24.42
2019-06-20T07:17:36.334Z,24.42
2019-06-20T07:18:36.326Z,24.71
2019-06-20T07:19:36.337Z,24.91
2019-06-20T07:20:36.319Z,25.03
2019-06-20T07:21:36.300Z,25.30
2019-06-20T07:22:36.277Z,25.47
2019-06-20T07:23:36.270Z,25.77
2019-06-20T07:24:36.267Z,25.87
2019-06-20T07:25:36.251Z,26.26
2019-06-20T07:26:36.277Z,26.55
2019-06-20T07:27:36.228Z,26.88
2019-06-20T07:28:36.212Z,26.87
2019-06-20T07:29:36.200Z,26.97
2019-06-20T07:30:36.197Z,27.07
2019-06-20T07:31:36.206Z,27.03
2019-06-20T07:32:36.164Z,26.77
2019-06-20T07:33:36.154Z,26.88
2019-06-20T07:34:36.147Z,27.02
2019-06-20T07:35:36.134Z,27.09
2019-06-20T07:36:36.181Z,27.37
2019-06-20T07:37:36.117Z,27.31
2019-06-20T07:38:36.107Z,27.25
2019-06-20T07:39:36.096Z,26.57
2019-06-20T07:40:36.090Z,26.25
2019-06-20T07:41:36.096Z,26.13
2019-06-20T07:42:36.080Z,26.51
2019-06-20T07:43:36.048Z,26.30
2019-06-20T07:44:36.041Z,26.09
2019-06-20T07:45:36.033Z,25.80
2019-06-20T07:46:36.104Z,25.80
2019-06-20T07:47:36.130Z,25.58
2019-06-20T07:48:36.056Z,25.67
2019-06-20T07:49:36.063Z,25.69
2019-06-20T07:50:39.270Z,25.57
2019-06-20T07:51:36.013Z,25.88
2019-06-20T07:52:36.046Z,25.95
2019-06-20T07:53:35.963Z,25.92
2019-06-20T07:54:35.926Z,25.90
2019-06-20T07:55:35.923Z,26.25
2019-06-20T07:56:35.911Z,26.51
2019-06-20T07:57:35.930Z,26.65
2019-06-20T07:58:36.051Z,26.81
2019-06-20T07:59:35.917Z,26.80
2019-06-20T08:00:35.899Z,26.60
2019-06-20T08:01:35.858Z,26.57
2019-06-20T08:02:36.228Z,26.63
2019-06-20T08:03:35.863Z,26.89
2019-06-20T08:04:35.836Z,27.55
2019-06-20T08:05:35.812Z,27.67
2019-06-20T08:06:35.804Z,28.49
2019-06-20T08:07:35.817Z,29.11
2019-06-20T08:08:35.827Z,28.95
2019-06-20T08:09:44.670Z,28.89
2019-06-20T08:10:36.805Z,28.59
2019-06-20T08:11:35.765Z,28.88
2019-06-20T08:12:35.774Z,29.02
2019-06-20T08:13:35.729Z,29.46
2019-06-20T08:14:35.723Z,29.52
2019-06-20T08:15:35.713Z,29.79
2019-06-20T08:16:35.734Z,29.60
2019-06-20T08:17:35.903Z,29.57
2019-06-20T08:18:35.673Z,29.14
2019-06-20T08:19:35.664Z,28.96
2019-06-20T08:20:35.667Z,28.95
2019-06-20T08:21:35.651Z,29.26
2019-06-20T08:22:35.686Z,29.41
2019-06-20T08:23:35.625Z,30.19
2019-06-20T08:24:35.615Z,30.61
2019-06-20T08:25:35.598Z,31.16
2019-06-20T08:26:35.601Z,31.44
2019-06-20T08:27:35.610Z,31.54
2019-06-20T08:28:35.620Z,31.69
2019-06-20T08:29:35.568Z,31.69
2019-06-20T08:30:35.553Z,31.73
2019-06-20T08:31:35.554Z,31.66
2019-06-20T08:32:35.529Z,31.58
2019-06-20T08:33:35.530Z,31.96
2019-06-20T08:34:35.512Z,32.15
2019-06-20T08:35:35.503Z,32.33
2019-06-20T08:36:35.485Z,32.89
2019-06-20T08:37:35.474Z,33.49
2019-06-20T08:38:35.484Z,33.90
2019-06-20T08:39:35.456Z,33.91
2019-06-20T08:40:35.457Z,34.05
2019-06-20T08:41:35.476Z,34.47
2019-06-20T08:42:35.427Z,34.30
2019-06-20T08:43:35.439Z,34.08
2019-06-20T08:44:35.437Z,33.98
2019-06-20T08:45:35.418Z,34.02
2019-06-20T08:46:35.388Z,34.50
2019-06-20T08:47:35.377Z,34.49
2019-06-20T08:48:35.393Z,35.00
2019-06-20T08:49:35.369Z,35.56
2019-06-20T08:50:35.345Z,36.29
2019-06-20T08:51:35.346Z,36.93
2019-06-20T08:52:35.341Z,37.72
2019-06-20T08:53:35.358Z,38.15
2019-06-20T08:54:35.334Z,38.38
2019-06-20T08:55:35.330Z,38.66
2019-06-20T08:56:35.286Z,37.96
2019-06-20T08:57:35.272Z,38.56
2019-06-20T08:58:35.294Z,39.52
2019-06-20T08:59:35.255Z,38.41
2019-06-20T09:00:35.250Z,37.63
2019-06-20T09:01:35.253Z,36.87
2019-06-20T09:02:35.246Z,36.73
2019-06-20T09:03:35.323Z,36.54
2019-06-20T09:04:35.209Z,35.90
2019-06-20T09:05:35.199Z,36.00
2019-06-20T09:06:35.196Z,37.07
2019-06-20T09:07:35.185Z,37.84
2019-06-20T09:08:35.209Z,38.49
2019-06-20T09:09:35.436Z,38.69
2019-06-20T09:10:35.237Z,38.23
2019-06-20T09:11:35.145Z,38.15
2019-06-20T09:12:35.191Z,38.38
2019-06-20T09:13:35.180Z,37.64
2019-06-20T09:14:35.174Z,37.55
2019-06-20T09:15:35.125Z,38.06
2019-06-20T09:16:35.121Z,38.46
2019-06-20T09:17:35.125Z,38.60
2019-06-20T09:18:35.107Z,38.60
2019-06-20T09:19:35.113Z,38.90
2019-06-20T09:20:35.093Z,39.18
2019-06-20T09:21:35.064Z,39.06
2019-06-20T09:22:35.042Z,39.51
2019-06-20T09:23:35.758Z,40.20
2019-06-20T09:24:35.141Z,40.83
2019-06-20T09:25:35.053Z,41.17
2019-06-20T09:26:35.023Z,40.45
2019-06-20T09:27:35.050Z,39.84
2019-06-20T09:28:35.022Z,40.27
2019-06-20T09:29:41.751Z,40.48
2019-06-20T09:30:36.066Z,40.84
2019-06-20T09:31:34.984Z,41.16
2019-06-20T09:32:34.964Z,41.33
2019-06-20T09:33:34.958Z,41.35
2019-06-20T09:34:34.953Z,41.17
2019-06-20T09:35:35.009Z,40.80
2019-06-20T09:36:34.942Z,40.19
2019-06-20T09:37:34.914Z,38.52
2019-06-20T09:38:34.925Z,39.75
2019-06-20T09:39:34.921Z,40.72
2019-06-20T09:40:34.898Z,41.39
2019-06-20T09:41:34.920Z,41.25
2019-06-20T09:42:36.863Z,41.44
2019-06-20T09:43:34.902Z,42.21
2019-06-20T09:44:34.863Z,41.64
2019-06-20T09:45:34.862Z,41.30
2019-06-20T09:46:34.850Z,38.93
2019-06-20T09:47:34.864Z,38.04
2019-06-20T09:48:34.852Z,38.87
2019-06-20T09:49:34.825Z,38.86
2019-06-20T09:50:34.814Z,38.38
2019-06-20T09:51:34.800Z,37.78
2019-06-20T09:52:34.817Z,37.10
2019-06-20T09:53:34.817Z,35.40
2019-06-20T09:54:34.798Z,34.62
2019-06-20T09:55:34.774Z,35.25
2019-06-20T09:56:34.782Z,36.54
2019-06-20T09:57:34.760Z,37.17
2019-06-20T09:58:34.763Z,38.47
2019-06-20T09:59:34.738Z,37.60
2019-06-20T10:00:34.719Z,36.34
2019-06-20T10:01:34.712Z,36.64
2019-06-20T10:02:34.724Z,37.63
2019-06-20T10:03:34.728Z,37.84
2019-06-20T10:04:34.699Z,38.95
2019-06-20T10:05:34.690Z,38.19
2019-06-20T10:06:34.677Z,36.95
2019-06-20T10:07:34.739Z,35.85
2019-06-20T10:08:34.666Z,34.96
2019-06-20T10:09:34.660Z,34.28
2019-06-20T10:10:34.687Z,33.26
2019-06-20T10:11:34.672Z,32.66
2019-06-20T10:12:34.611Z,32.40
2019-06-20T10:13:34.597Z,32.14
2019-06-20T10:14:34.591Z,31.80
2019-06-20T10:15:34.575Z,31.43
2019-06-20T10:16:45.356Z,30.37
2019-06-20T10:17:35.580Z,30.00
2019-06-20T10:18:34.574Z,29.53
2019-06-20T10:19:34.542Z,29.53
2019-06-20T10:20:34.594Z,29.52
2019-06-20T10:21:34.540Z,29.04
2019-06-20T10:22:34.504Z,28.86
2019-06-20T10:23:34.520Z,28.70
2019-06-20T10:24:34.487Z,28.58
2019-06-20T10:25:34.480Z,28.55
2019-06-20T10:26:37.559Z,29.18
2019-06-20T10:27:34.458Z,29.09
2019-06-20T10:28:34.446Z,28.70
2019-06-20T10:29:34.488Z,28.48
2019-06-20T10:30:34.427Z,28.34
2019-06-20T10:31:34.416Z,27.97
2019-06-20T10:32:34.401Z,27.97
2019-06-20T10:33:34.411Z,28.25
2019-06-20T10:34:34.382Z,28.12
2019-06-20T10:35:34.381Z,28.24
2019-06-20T10:36:34.383Z,28.25
2019-06-20T10:37:34.359Z,28.25
2019-06-20T10:38:34.367Z,28.19
2019-06-20T10:39:34.364Z,28.09
2019-06-20T10:40:34.321Z,27.90
2019-06-20T10:41:34.305Z,27.65
2019-06-20T10:42:34.304Z,27.70
2019-06-20T10:43:34.293Z,27.62
2019-06-20T10:44:34.308Z,27.36
2019-06-20T10:45:34.271Z,27.43
2019-06-20T10:46:34.253Z,27.54
2019-06-20T10:47:36.169Z,27.55
2019-06-20T10:48:34.237Z,27.59
2019-06-20T10:49:34.244Z,27.54
2019-06-20T10:50:34.219Z,27.82
2019-06-20T10:51:34.207Z,27.44
2019-06-20T10:52:34.199Z,27.10
2019-06-20T10:53:34.198Z,27.29
2019-06-20T10:54:34.189Z,27.43
2019-06-20T10:55:34.159Z,27.36
2019-06-20T10:56:34.153Z,27.55
2019-06-20T10:57:34.168Z,27.87
2019-06-20T10:58:34.153Z,27.94
2019-06-20T10:59:34.117Z,27.72
2019-06-20T11:00:34.114Z,28.09
2019-06-20T11:01:34.100Z,28.44
2019-06-20T11:02:34.093Z,28.61
2019-06-20T11:03:34.083Z,28.83
2019-06-20T11:04:34.082Z,29.08
2019-06-20T11:05:34.054Z,29.26
2019-06-20T11:06:34.040Z,29.24
2019-06-20T11:07:34.054Z,29.19
2019-06-20T11:08:34.024Z,29.12
2019-06-20T11:09:34.022Z,29.14
2019-06-20T11:10:34.053Z,28.76
2019-06-20T11:11:33.994Z,28.40
2019-06-20T11:12:42.897Z,28.27
2019-06-20T11:13:34.964Z,28.49
2019-06-20T11:14:33.980Z,28.54
2019-06-20T11:15:33.982Z,28.22
2019-06-20T11:16:33.939Z,28.06
2019-06-20T11:17:33.958Z,28.03
2019-06-20T11:18:33.923Z,27.99
2019-06-20T11:19:33.909Z,27.99
2019-06-20T11:20:33.919Z,28.00
2019-06-20T11:21:33.891Z,28.02
2019-06-20T11:22:33.889Z,27.81
2019-06-20T11:23:33.870Z,27.97
2019-06-20T11:24:33.857Z,28.09
2019-06-20T11:25:33.866Z,28.22
2019-06-20T11:26:33.850Z,28.07
2019-06-20T11:27:33.822Z,28.09
2019-06-20T11:28:33.816Z,28.06
2019-06-20T11:29:33.806Z,27.88
2019-06-20T11:30:47.967Z,28.03
2019-06-20T11:31:34.778Z,28.19
2019-06-20T11:32:33.771Z,28.06
2019-06-20T11:33:36.488Z,28.24
2019-06-20T11:34:33.757Z,28.14
2019-06-20T11:35:35.979Z,28.04
2019-06-20T11:36:33.740Z,28.09
2019-06-20T11:37:35.038Z,28.06
2019-06-20T11:38:33.701Z,28.00
2019-06-20T11:39:34.701Z,28.06
2019-06-20T11:40:33.717Z,27.82
2019-06-20T11:41:34.964Z,27.55
2019-06-20T11:42:34.690Z,27.31
2019-06-20T11:43:34.749Z,27.10
2019-06-20T11:44:35.305Z,26.94
2019-06-20T11:45:35.488Z,26.85
2019-06-20T11:46:35.362Z,26.55
2019-06-20T11:47:34.977Z,26.13
2019-06-20T11:48:34.322Z,25.72
2019-06-20T11:49:34.710Z,25.32
2019-06-20T11:50:34.915Z,25.23
2019-06-20T11:51:34.889Z,25.13
2019-06-20T11:52:40.052Z,25.27
2019-06-20T11:53:35.309Z,25.18
2019-06-20T11:54:34.450Z,25.10
2019-06-20T11:55:33.531Z,24.98
2019-06-20T11:56:33.528Z,24.99
2019-06-20T11:57:33.508Z,24.78
2019-06-20T11:58:33.488Z,24.68
2019-06-20T11:59:33.477Z,24.73
2019-06-20T12:00:33.475Z,24.98
2019-06-20T12:01:33.478Z,25.00
2019-06-20T12:02:33.449Z,25.27
2019-06-20T12:03:33.468Z,25.27
2019-06-20T12:04:33.433Z,25.51
2019-06-20T12:05:33.421Z,25.38
2019-06-20T12:06:33.432Z,25.28
2019-06-20T12:07:33.464Z,25.06
2019-06-20T12:08:33.410Z,25.17
2019-06-20T12:09:36.377Z,25.24
2019-06-20T12:10:33.365Z,25.39
2019-06-20T12:11:33.351Z,25.28
2019-06-20T12:12:33.346Z,25.17
2019-06-20T12:13:33.337Z,25.25
2019-06-20T12:14:33.338Z,25.43
2019-06-20T12:15:33.315Z,25.57
2019-06-20T12:16:33.306Z,25.64
2019-06-20T12:17:33.286Z,25.87
2019-06-20T12:18:33.296Z,25.94
2019-06-20T12:19:33.272Z,26.09
2019-06-20T12:20:33.259Z,25.97
2019-06-20T12:21:33.250Z,25.87
2019-06-20T12:22:33.264Z,25.69
2019-06-20T12:23:33.223Z,25.88
2019-06-20T12:24:33.219Z,26.02
2019-06-20T12:25:33.203Z,26.12
2019-06-20T12:26:33.236Z,26.28
2019-06-20T12:27:33.440Z,26.25
2019-06-20T12:28:33.167Z,26.18
2019-06-20T12:29:33.167Z,26.20
2019-06-20T12:30:33.172Z,26.01
2019-06-20T12:31:33.135Z,25.83
2019-06-20T12:32:33.149Z,25.60
2019-06-20T12:33:33.120Z,25.36
2019-06-20T12:34:33.111Z,25.28
2019-06-20T12:35:33.094Z,25.13
2019-06-20T12:36:33.093Z,25.30
2019-06-20T12:37:33.106Z,25.43
2019-06-20T12:38:33.086Z,25.39
2019-06-20T12:39:33.070Z,25.33
2019-06-20T12:40:33.062Z,25.27
2019-06-20T12:41:33.029Z,25.10
2019-06-20T12:42:33.019Z,24.84
2019-06-20T12:43:33.028Z,24.78
2019-06-20T12:44:33.003Z,24.68
2019-06-20T12:45:32.991Z,24.47
2019-06-20T12:46:32.976Z,24.24
2019-06-20T12:47:32.971Z,23.97
2019-06-20T12:48:32.954Z,23.87
2019-06-20T12:49:32.987Z,23.97
2019-06-20T12:50:32.971Z,24.03
2019-06-20T12:51:32.927Z,24.16
2019-06-20T12:52:32.947Z,24.20